Time;durP1;ratioP1;P1;durP2;ratioP2;P2;SDS_P1;SDS_P2;PMS_P1;PMS_P2;Temp;Humidity;BMP_temperature;BMP_pressure;BME280_temperature;BME280_humidity;BME280_pressure;Samples;Min_cycle;Max_cycle;Signal;HPM_P1;HPM_P2
2022/06/22 00:01:08;;;;;;;16.70;7.90;;;;;;;21.85;59.35;94610.22;4984378;28;20030;-76
2022/06/22 00:03:34;;;;;;;11.55;7.82;;;;;;;21.81;59.74;94605.88;4995324;28;20044;-78
2022/06/22 00:05:59;;;;;;;18.67;7.55;;;;;;;21.79;59.73;94603.50;5009174;28;20054;-77
2022/06/22 00:08:32;;;;;;;11.93;7.68;;;;;;;21.81;59.85;94605.88;4992471;28;20037;-78
2022/06/22 00:11:03;;;;;;;16.52;7.30;;;;;;;21.81;59.81;94608.50;5025122;23;20041;-78
2022/06/22 00:13:29;;;;;;;15.02;7.57;;;;;;;21.82;59.68;94615.38;5026223;28;20215;-78
2022/06/22 00:16:03;;;;;;;13.27;8.18;;;;;;;21.81;59.70;94616.44;5149253;22;20047;-78
2022/06/22 00:18:34;;;;;;;16.55;7.25;;;;;;;21.78;59.68;94623.13;5021030;28;20064;-75
2022/06/22 00:21:03;;;;;;;11.50;7.40;;;;;;;21.81;59.88;94619.09;5024507;28;20047;-78
2022/06/22 00:23:40;;;;;;;15.50;7.28;;;;;;;21.82;59.89;94612.72;5038720;28;20033;-77
2022/06/22 00:26:25;;;;;;;22.20;7.82;;;;;;;21.85;59.68;94606.81;5050515;28;20033;-77
2022/06/22 00:28:58;;;;;;;19.95;8.27;;;;;;;21.89;59.77;94613.03;5040294;28;20503;-77
2022/06/22 00:31:33;;;;;;;19.60;8.80;;;;;;;21.94;59.75;94615.53;5040553;28;20033;-77
2022/06/22 00:34:23;;;;;;;19.48;8.60;;;;;;;22.01;59.46;94607.94;5040856;28;20104;-77
2022/06/22 00:37:06;;;;;;;11.73;7.72;;;;;;;22.07;59.54;94609.38;5037374;22;20045;-77
2022/06/22 00:39:42;;;;;;;19.63;8.43;;;;;;;22.11;59.67;94610.31;5034514;28;20982;-78
2022/06/22 00:42:18;;;;;;;24.42;7.80;;;;;;;22.16;59.17;94612.81;5014903;28;20041;-78
2022/06/22 00:45:07;;;;;;;15.40;7.38;;;;;;;22.21;59.52;94611.09;5108544;22;20045;-78
2022/06/22 00:47:38;;;;;;;15.13;8.07;;;;;;;22.25;59.13;94604.88;5025133;23;20494;-78
2022/06/22 00:50:09;;;;;;;19.65;7.90;;;;;;;22.30;59.43;94611.91;5027889;28;20041;-77
2022/06/22 00:53:03;;;;;;;15.25;7.40;;;;;;;22.35;59.21;94614.41;5035181;28;20052;-78
2022/06/22 00:55:31;;;;;;;18.45;7.88;;;;;;;22.39;59.11;94620.63;5033588;28;20038;-77
2022/06/22 00:58:08;;;;;;;10.68;7.45;;;;;;;22.41;59.05;94618.44;5029314;23;20042;-77
2022/06/22 01:01:04;;;;;;;11.55;7.07;;;;;;;22.44;58.70;94623.13;5006221;28;20580;-77
2022/06/22 01:03:50;;;;;;;16.60;6.68;;;;;;;22.46;58.71;94619.09;4986296;28;20030;-77
2022/06/22 01:06:19;;;;;;;15.70;7.80;;;;;;;22.48;58.83;94626.72;4971292;28;20030;-78
2022/06/22 01:08:53;;;;;;;17.83;7.93;;;;;;;22.51;58.86;94622.69;4985092;28;20045;-78
2022/06/22 01:14:15;;;;;;;16.88;7.95;;;;;;;22.51;58.75;94618.16;5014088;28;20091;-78
2022/06/22 01:16:40;;;;;;;11.75;7.32;;;;;;;22.55;58.80;94619.09;5004605;28;20045;-77
2022/06/22 01:22:43;;;;;;;18.23;8.77;;;;;;;22.56;58.91;94620.66;4964060;28;20069;-77
2022/06/22 01:25:43;;;;;;;16.05;8.45;;;;;;;22.53;58.71;94605.38;5470942;23;20108;-78
2022/06/22 01:28:10;;;;;;;20.02;8.80;;;;;;;22.51;58.82;94596.97;5011090;28;20041;-77
2022/06/22 01:30:38;;;;;;;19.52;8.90;;;;;;;22.51;58.78;94607.56;5011156;28;20079;-77
2022/06/22 01:33:38;;;;;;;13.77;8.32;;;;;;;22.51;59.14;94601.47;5024989;23;20069;-77
2022/06/22 01:36:25;;;;;;;14.10;7.68;;;;;;;22.52;59.20;94603.81;5132921;23;20446;-78
2022/06/22 01:38:51;;;;;;;17.38;8.07;;;;;;;22.53;58.91;94594.78;5053176;28;20107;-78
2022/06/22 01:41:32;;;;;;;22.90;8.82;;;;;;;22.51;59.20;94596.97;5035051;28;20041;-78
2022/06/22 01:46:52;;;;;;;15.45;8.27;;;;;;;22.50;59.35;94595.41;5016653;28;20056;-78
2022/06/22 01:49:28;;;;;;;20.65;7.63;;;;;;;22.46;59.36;94589.94;5031388;28;20037;-78
2022/06/22 01:52:01;;;;;;;15.30;7.95;;;;;;;22.39;59.46;94578.25;5030490;28;20037;-78
2022/06/22 01:54:34;;;;;;;17.90;7.85;;;;;;;22.36;59.61;94589.47;5070333;23;20114;-78
2022/06/22 01:57:08;;;;;;;16.20;8.27;;;;;;;22.28;60.17;94598.94;5079357;22;20060;-78
2022/06/22 02:02:16;;;;;;;11.93;7.47;;;;;;;22.20;59.93;94591.00;5054410;22;20077;-77
2022/06/22 02:05:05;;;;;;;11.93;7.93;;;;;;;22.21;60.13;94595.22;5032201;28;20061;-78
2022/06/22 02:10:26;;;;;;;14.98;8.57;;;;;;;22.16;60.30;94593.50;5045563;22;20217;-78
2022/06/22 02:13:07;;;;;;;20.52;8.95;;;;;;;22.17;60.34;94585.25;5031202;28;20044;-77
2022/06/22 02:15:38;;;;;;;15.82;7.80;;;;;;;22.13;60.23;94584.31;5029519;28;20026;-78
2022/06/22 02:18:05;;;;;;;18.60;8.23;;;;;;;22.12;60.33;94574.78;5112666;22;20055;-78
2022/06/22 02:20:35;;;;;;;17.63;8.73;;;;;;;22.09;60.39;94585.22;5051800;28;20051;-78
2022/06/22 02:23:11;;;;;;;17.10;9.20;;;;;;;22.10;60.45;94579.63;5025727;28;20036;-77
2022/06/22 02:25:41;;;;;;;18.05;8.85;;;;;;;22.04;60.67;94572.09;5044449;28;20037;-78
2022/06/22 02:28:06;;;;;;;18.00;9.20;;;;;;;22.01;60.77;94580.69;5062839;22;20119;-78
2022/06/22 02:30:31;;;;;;;17.70;9.02;;;;;;;21.98;61.25;94582.06;5046056;22;20904;-77
2022/06/22 02:32:57;;;;;;;24.13;9.98;;;;;;;21.97;61.15;94583.16;5029577;28;20029;-77
2022/06/22 02:35:22;;;;;;;18.30;9.82;;;;;;;21.92;61.19;94585.94;5011836;28;20037;-77
2022/06/22 02:37:54;;;;;;;15.85;9.85;;;;;;;21.91;61.24;94584.38;5029727;28;20488;-77
2022/06/22 02:40:25;;;;;;;27.70;9.20;;;;;;;21.91;61.17;94580.97;4990283;28;20030;-78
2022/06/22 02:45:36;;;;;;;19.50;9.65;;;;;;;21.92;60.62;94580.66;5043471;22;20123;-78
2022/06/22 02:48:24;;;;;;;27.58;10.40;;;;;;;21.91;60.37;94584.38;5021161;28;20527;-78
2022/06/22 02:50:55;;;;;;;19.20;9.38;;;;;;;21.87;60.85;94580.78;5016062;28;20060;-77
2022/06/22 02:53:26;;;;;;;23.48;9.85;;;;;;;21.86;60.80;94576.59;5019570;28;20037;-77
2022/06/22 02:55:52;;;;;;;17.55;9.85;;;;;;;21.79;61.08;94577.03;5018596;28;20042;-77
2022/06/22 02:58:37;;;;;;;28.85;10.57;;;;;;;21.74;61.72;94579.81;5002049;28;20037;-77
2022/06/22 03:01:12;;;;;;;21.25;9.55;;;;;;;21.69;61.84;94597.72;5026909;28;20052;-78
2022/06/22 03:03:38;;;;;;;24.17;10.38;;;;;;;21.66;62.17;94587.75;5051024;28;20041;-78
2022/06/22 03:06:04;;;;;;;20.02;9.13;;;;;;;21.69;62.38;94593.22;5056102;22;20136;-78
2022/06/22 03:08:29;;;;;;;20.98;10.00;;;;;;;21.71;61.98;94590.25;5012530;23;20537;-77
2022/06/22 03:11:00;;;;;;;24.55;10.00;;;;;;;21.72;61.98;94583.88;5062005;22;20695;-78
2022/06/22 03:13:40;;;;;;;22.93;9.53;;;;;;;21.71;61.79;94584.97;4995584;28;20034;-78
2022/06/22 03:16:08;;;;;;;19.35;9.45;;;;;;;21.77;62.00;94579.22;5107545;22;20257;-76
2022/06/22 03:18:34;;;;;;;16.60;9.38;;;;;;;21.81;61.76;94589.97;5038167;28;20056;-76
2022/06/22 03:21:04;;;;;;;18.05;9.30;;;;;;;21.88;62.04;94592.94;5040224;28;20029;-79
2022/06/22 03:23:36;;;;;;;21.50;9.48;;;;;;;21.94;61.86;94583.75;5199251;22;20120;-78
2022/06/22 03:26:14;;;;;;;22.23;11.25;;;;;;;22.02;61.42;94590.94;5032388;28;20123;-79
2022/06/22 03:28:47;;;;;;;40.53;21.98;;;;;;;22.11;61.52;94575.09;5026596;28;20060;-76
2022/06/22 03:31:17;;;;;;;31.80;16.42;;;;;;;22.20;60.89;94580.41;5008397;28;20048;-79
2022/06/22 03:34:08;;;;;;;24.00;11.88;;;;;;;22.27;60.85;94588.66;5017164;28;20049;-79
2022/06/22 03:36:37;;;;;;;23.67;10.63;;;;;;;22.36;60.82;94586.81;5027216;28;20055;-78
2022/06/22 03:39:07;;;;;;;20.65;9.95;;;;;;;22.36;60.68;94584.16;5000810;28;20047;-79
2022/06/22 03:41:39;;;;;;;23.77;10.15;;;;;;;22.39;60.99;94594.91;4995833;28;20033;-78
2022/06/22 03:44:14;;;;;;;19.52;9.38;;;;;;;22.42;60.78;94590.88;4993622;28;20030;-77
2022/06/22 03:46:45;;;;;;;27.83;10.45;;;;;;;22.40;60.83;94585.09;5031650;28;20029;-78
2022/06/22 03:49:21;;;;;;;15.52;10.10;;;;;;;22.45;60.92;94592.88;5014196;28;20040;-78
2022/06/22 03:51:55;;;;;;;21.15;10.10;;;;;;;22.51;60.82;94601.47;5014260;28;20461;-78
2022/06/22 03:54:26;;;;;;;16.42;10.95;;;;;;;22.52;60.68;94609.13;4999015;28;20464;-77
2022/06/22 03:56:54;;;;;;;31.57;11.07;;;;;;;22.52;61.05;94609.13;5015699;28;20026;-78
2022/06/22 03:59:20;;;;;;;23.77;9.95;;;;;;;22.58;60.64;94621.09;4998190;28;20040;-82
2022/06/22 04:01:45;;;;;;;26.73;9.38;;;;;;;22.79;60.40;94628.44;5033364;28;20040;-78
2022/06/22 04:04:11;;;;;;;19.55;8.95;;;;;;;23.22;58.92;94621.22;4989753;28;20033;-78
2022/06/22 04:06:45;;;;;;;18.02;9.80;;;;;;;24.55;55.29;94615.47;4982357;28;20025;-78
2022/06/22 04:09:18;;;;;;;20.80;8.75;;;;;;;25.97;51.72;94613.47;5016593;28;20076;-78
2022/06/22 04:11:56;;;;;;;16.15;8.75;;;;;;;27.27;47.40;94617.59;5032376;23;20064;-77
2022/06/22 04:14:41;;;;;;;15.65;7.35;;;;;;;28.44;44.60;94598.25;5061652;28;20079;-79
2022/06/22 04:17:24;;;;;;;17.23;7.85;;;;;;;29.66;41.69;94588.75;5013377;28;20037;-79
2022/06/22 04:20:16;;;;;;;14.63;6.13;;;;;;;30.95;39.19;94592.13;5042802;28;20028;-79
2022/06/22 04:22:42;;;;;;;18.10;6.80;;;;;;;32.04;36.00;94582.75;5044407;28;20119;-79
2022/06/22 04:25:50;;;;;;;20.00;6.22;;;;;;;33.12;34.43;94582.94;5026531;28;20044;-79
2022/06/22 04:28:15;;;;;;;12.15;6.68;;;;;;;34.36;32.04;94586.16;5221584;22;20254;-78
2022/06/22 04:30:44;;;;;;;11.40;5.68;;;;;;;35.15;30.87;94579.31;5028538;28;20037;-78
2022/06/22 04:33:20;;;;;;;10.00;5.45;;;;;;;36.15;28.95;94590.22;5030069;28;20076;-78
2022/06/22 04:36:13;;;;;;;14.20;5.32;;;;;;;36.96;27.38;94582.41;5030834;28;20037;-78
2022/06/22 04:38:46;;;;;;;14.70;5.30;;;;;;;37.43;27.10;94588.00;5004908;28;20038;-77
2022/06/22 04:41:36;;;;;;;17.83;5.30;;;;;;;38.07;26.26;94593.19;5020673;28;20033;-78
2022/06/22 04:44:20;;;;;;;16.58;5.30;;;;;;;38.83;24.84;94598.06;5018814;28;20034;-77
2022/06/22 04:46:48;;;;;;;9.52;4.80;;;;;;;39.37;24.44;94597.75;4999247;28;20025;-78
2022/06/22 04:49:36;;;;;;;6.88;4.25;;;;;;;40.12;23.43;94597.56;4981792;28;20041;-78
2022/06/22 04:52:27;;;;;;;13.15;4.88;;;;;;;40.73;22.51;94612.38;5032210;28;20045;-78
2022/06/22 04:54:54;;;;;;;12.55;4.65;;;;;;;41.49;22.03;94618.00;5005207;28;20049;-78
2022/06/22 04:57:36;;;;;;;18.20;4.95;;;;;;;42.00;20.92;94609.06;5030158;28;20040;-78
2022/06/22 05:00:04;;;;;;;10.80;4.10;;;;;;;42.68;20.58;94607.59;4999984;28;20148;-78
2022/06/22 05:02:37;;;;;;;18.52;4.60;;;;;;;43.20;19.59;94617.06;4998768;28;20029;-79
2022/06/22 05:05:24;;;;;;;19.00;6.32;;;;;;;43.12;19.89;94622.00;4999000;28;20056;-78
2022/06/22 05:08:00;;;;;;;26.15;5.15;;;;;;;43.53;19.51;94617.38;5018032;28;20049;-78
2022/06/22 05:10:34;;;;;;;11.98;4.70;;;;;;;44.08;18.80;94615.59;4999059;28;20029;-78
2022/06/22 05:13:03;;;;;;;13.27;4.80;;;;;;;44.57;19.01;94621.03;5030538;28;20063;-77
2022/06/22 05:15:34;;;;;;;16.45;4.32;;;;;;;44.83;18.23;94623.47;4988956;28;20029;-78
2022/06/22 05:18:03;;;;;;;12.45;4.20;;;;;;;45.18;17.61;94627.38;5014325;28;20065;-79
2022/06/22 05:20:32;;;;;;;10.60;4.07;;;;;;;45.69;17.53;94623.91;5015047;28;20488;-78
2022/06/22 05:22:59;;;;;;;15.35;4.32;;;;;;;46.32;16.75;94624.78;5016924;28;20029;-78
2022/06/22 05:25:25;;;;;;;14.02;4.20;;;;;;;47.03;16.02;94614.16;5017782;28;20030;-78
2022/06/22 05:28:06;;;;;;;10.25;4.53;;;;;;;47.22;15.86;94619.03;5035858;28;20033;-78
2022/06/22 05:30:56;;;;;;;7.32;4.10;;;;;;;47.46;15.60;94612.66;5035216;28;20045;-78
2022/06/22 05:33:22;;;;;;;8.95;4.22;;;;;;;47.96;15.32;94618.19;5019144;28;20037;-78
2022/06/22 05:35:58;;;;;;;10.63;3.78;;;;;;;48.31;14.64;94612.66;5001537;28;20087;-78
2022/06/22 05:38:24;;;;;;;14.60;3.92;;;;;;;48.62;14.38;94612.78;5018950;28;20151;-78
2022/06/22 05:40:49;;;;;;;11.48;4.18;;;;;;;49.10;13.79;94609.53;5009704;28;20045;-77
2022/06/22 05:43:14;;;;;;;9.68;3.88;;;;;;;49.45;14.06;94611.34;5039234;28;20030;-78
2022/06/22 05:45:46;;;;;;;14.50;4.25;;;;;;;49.86;13.70;94618.19;5004872;28;20088;-79
2022/06/22 05:48:14;;;;;;;8.88;3.95;;;;;;;50.04;12.96;94632.91;5035411;28;20068;-79
2022/06/22 05:51:01;;;;;;;12.80;4.50;;;;;;;49.73;13.61;94630.91;4988580;28;20042;-81
2022/06/22 05:53:46;;;;;;;16.77;4.03;;;;;;;49.42;13.88;94623.38;5041844;28;20036;-82
2022/06/22 05:56:32;;;;;;;10.95;3.85;;;;;;;49.12;13.93;94634.63;5008093;28;20542;-81
2022/06/22 05:59:00;;;;;;;8.07;3.63;;;;;;;49.15;13.77;94625.41;5025118;28;20040;-82
2022/06/22 06:01:44;;;;;;;21.90;4.07;;;;;;;48.97;14.17;94622.94;5025118;28;20097;-81
2022/06/22 06:04:37;;;;;;;13.63;3.85;;;;;;;48.92;14.04;94626.41;5041133;28;20033;-81
2022/06/22 06:07:15;;;;;;;17.00;3.58;;;;;;;48.53;14.96;94623.97;5047697;28;20029;-80
2022/06/22 06:09:40;;;;;;;14.18;3.97;;;;;;;48.75;14.16;94614.44;5031308;28;20025;-81
2022/06/22 06:12:09;;;;;;;13.93;3.80;;;;;;;48.58;14.71;94614.22;5008834;28;20037;-81
2022/06/22 06:14:38;;;;;;;11.40;3.90;;;;;;;48.42;15.04;94618.31;5025676;28;20049;-81
2022/06/22 06:17:10;;;;;;;10.85;4.32;;;;;;;48.13;15.58;94619.16;5009212;28;20056;-81
2022/06/22 06:19:37;;;;;;;6.07;3.67;;;;;;;47.94;14.90;94618.66;5024451;28;20429;-80
2022/06/22 06:22:04;;;;;;;7.90;3.83;;;;;;;47.71;15.52;94616.81;5007727;28;20096;-81
2022/06/22 06:24:40;;;;;;;6.63;4.00;;;;;;;47.69;15.51;94608.28;5022933;28;20060;-81
2022/06/22 06:30:18;;;;;;;11.52;4.00;;;;;;;46.56;16.64;94616.56;5012651;28;20156;-80
2022/06/22 06:33:04;;;;;;;25.67;5.15;;;;;;;46.39;16.98;94612.69;5025967;28;20046;-80
2022/06/22 06:35:50;;;;;;;6.68;3.60;;;;;;;45.97;17.13;94610.78;5024937;28;20049;-79
2022/06/22 06:38:57;;;;;;;16.65;4.13;;;;;;;45.95;17.06;94618.00;5025689;28;20030;-79
2022/06/22 06:43:56;;;;;;;8.98;3.90;;;;;;;46.04;17.49;94615.19;5059262;28;20141;-79
2022/06/22 06:46:27;;;;;;;9.63;3.70;;;;;;;46.14;17.37;94611.16;5039278;28;20075;-80
2022/06/22 06:49:26;;;;;;;8.50;4.00;;;;;;;45.83;17.49;94613.47;5004262;28;20045;-80
2022/06/22 06:54:28;;;;;;;7.60;4.00;;;;;;;45.89;17.91;94604.13;5033971;28;20046;-80
2022/06/22 06:57:09;;;;;;;10.98;4.25;;;;;;;45.89;17.50;94600.59;5036794;28;20493;-80
2022/06/22 06:59:35;;;;;;;14.05;3.90;;;;;;;45.82;17.67;94598.22;5003612;28;20041;-80
2022/06/22 07:02:05;;;;;;;12.75;4.78;;;;;;;45.44;18.29;94603.09;5022558;28;20077;-79
2022/06/22 07:04:34;;;;;;;8.80;3.90;;;;;;;45.12;18.36;94598.28;5000714;28;20029;-81
2022/06/22 07:07:31;;;;;;;17.02;4.82;;;;;;;44.94;18.04;94588.13;5000805;28;20033;-79
2022/06/22 07:09:59;;;;;;;10.25;4.40;;;;;;;43.88;19.40;94588.63;5023358;28;20109;-80
2022/06/22 07:12:36;;;;;;;11.90;4.50;;;;;;;43.40;20.23;94585.38;5005074;28;20030;-80
2022/06/22 07:15:05;;;;;;;7.03;3.97;;;;;;;42.85;20.69;94587.78;5022414;28;20041;-81
2022/06/22 07:17:32;;;;;;;6.90;3.92;;;;;;;42.26;21.79;94581.25;5004813;28;20026;-80
2022/06/22 07:20:19;;;;;;;17.15;5.07;;;;;;;41.80;22.61;94576.50;5020654;28;20405;-80
2022/06/22 07:22:50;;;;;;;10.85;4.70;;;;;;;41.50;22.66;94586.81;5019856;28;20039;-80
2022/06/22 07:25:23;;;;;;;8.55;4.43;;;;;;;41.01;23.18;94586.31;5037336;28;20509;-80
2022/06/22 07:28:05;;;;;;;5.72;4.60;;;;;;;40.59;23.68;94574.59;5052616;23;20045;-80
2022/06/22 07:30:40;;;;;;;11.27;5.43;;;;;;;40.01;24.66;94574.50;5024459;28;20018;-80
2022/06/22 07:33:18;;;;;;;11.73;5.25;;;;;;;39.54;25.41;94566.66;4994461;28;20137;-80
2022/06/22 07:35:52;;;;;;;20.58;6.72;;;;;;;39.08;26.19;94576.63;5009205;28;20030;-79
2022/06/22 07:38:23;;;;;;;22.10;9.95;;;;;;;38.46;25.97;94575.47;5008983;28;20037;-80
2022/06/22 07:43:33;;;;;;;12.48;8.55;;;;;;;37.25;27.81;94571.94;4998332;28;20123;-82
2022/06/22 07:45:59;;;;;;;17.88;10.55;;;;;;;36.66;28.55;94573.06;4981207;28;20033;-82
2022/06/22 07:48:24;;;;;;;17.95;9.32;;;;;;;36.44;29.50;94573.69;5029123;28;20112;-80
2022/06/22 07:50:57;;;;;;;23.40;12.65;;;;;;;36.33;29.81;94569.16;5019079;28;20570;-79
2022/06/22 07:53:45;;;;;;;12.20;9.35;;;;;;;36.08;29.79;94579.44;5018420;28;20037;-80
2022/06/22 07:56:21;;;;;;;20.30;11.63;;;;;;;35.94;30.49;94587.66;5023710;28;20034;-80
2022/06/22 07:59:00;;;;;;;19.05;13.32;;;;;;;35.46;30.84;94577.56;5011702;28;20540;-79
2022/06/22 08:01:31;;;;;;;18.27;12.00;;;;;;;35.13;31.34;94576.22;4978931;28;20092;-80
2022/06/22 08:04:19;;;;;;;13.07;9.88;;;;;;;34.94;31.96;94585.56;5003083;28;20046;-78
2022/06/22 08:06:47;;;;;;;18.35;10.50;;;;;;;34.71;32.35;94587.97;5021589;28;20081;-80
2022/06/22 08:09:26;;;;;;;12.13;10.52;;;;;;;34.32;33.88;94592.28;5025415;28;20034;-80
2022/06/22 08:12:27;;;;;;;22.27;11.73;;;;;;;33.99;33.89;94587.31;5012966;28;20060;-80
2022/06/22 08:14:53;;;;;;;14.40;10.80;;;;;;;33.96;34.28;94596.94;5028151;28;20091;-80
2022/06/22 08:17:19;;;;;;;18.60;11.35;;;;;;;33.86;34.39;94600.44;4996358;28;20033;-81
2022/06/22 08:19:44;;;;;;;26.90;11.68;;;;;;;33.72;34.86;94597.72;5012507;28;20034;-81
2022/06/22 08:22:10;;;;;;;22.10;10.95;;;;;;;33.48;34.92;94595.75;4994377;28;20088;-80
2022/06/22 08:24:40;;;;;;;14.88;11.15;;;;;;;33.35;34.90;94598.81;5022723;28;20042;-77
2022/06/22 08:27:06;;;;;;;15.00;10.63;;;;;;;33.29;35.76;94594.94;4994091;28;20087;-80
2022/06/22 08:29:32;;;;;;;22.33;10.52;;;;;;;33.25;36.30;94583.38;5008980;28;20061;-80
2022/06/22 08:32:15;;;;;;;18.77;10.32;;;;;;;32.88;35.90;94591.75;4987534;28;20501;-80
2022/06/22 08:34:42;;;;;;;18.38;10.70;;;;;;;32.38;36.59;94602.25;5023867;28;20030;-80
2022/06/22 08:37:12;;;;;;;20.23;10.75;;;;;;;32.07;38.03;94603.56;5006717;28;20092;-79
2022/06/22 08:39:41;;;;;;;17.67;10.73;;;;;;;31.77;38.04;94584.13;5006184;28;20136;-79
2022/06/22 08:42:25;;;;;;;28.15;11.82;;;;;;;31.58;37.76;94577.03;5010676;28;20034;-77
2022/06/22 08:45:08;;;;;;;19.50;12.63;;;;;;;31.45;38.49;94573.84;5027812;28;20379;-77
2022/06/22 08:47:52;;;;;;;19.35;11.88;;;;;;;31.33;38.41;94582.16;5011095;28;20030;-78
2022/06/22 08:50:39;;;;;;;21.65;10.77;;;;;;;31.29;37.73;94587.50;5019947;28;20034;-76
2022/06/22 08:53:28;;;;;;;14.65;9.63;;;;;;;31.32;37.46;94586.78;5025714;28;20046;-75
2022/06/22 08:56:08;;;;;;;23.33;10.07;;;;;;;31.33;37.07;94566.03;5017226;28;20108;-75
2022/06/22 08:58:43;;;;;;;24.23;10.10;;;;;;;31.18;37.26;94575.09;5021084;28;20037;-74
2022/06/22 09:01:33;;;;;;;14.65;9.18;;;;;;;31.04;37.72;94575.69;5002894;28;20414;-75
2022/06/22 09:04:24;;;;;;;22.10;9.27;;;;;;;31.02;38.08;94562.63;5004739;28;20091;-75
2022/06/22 09:07:08;;;;;;;26.92;10.30;;;;;;;31.01;38.54;94569.16;5021649;28;20104;-74
2022/06/22 09:09:43;;;;;;;31.25;9.48;;;;;;;31.03;39.11;94558.81;5019687;28;20037;-76
2022/06/22 09:12:29;;;;;;;18.80;9.13;;;;;;;30.96;38.38;94568.72;5020406;28;20037;-74
2022/06/22 09:15:01;;;;;;;20.90;9.52;;;;;;;31.04;38.74;94548.84;5021462;28;20726;-76
2022/06/22 09:17:50;;;;;;;16.85;9.88;;;;;;;31.11;38.60;94566.97;5029339;28;20095;-81
2022/06/22 09:20:24;;;;;;;22.38;9.63;;;;;;;31.17;38.05;94552.03;5003193;28;20041;-76
2022/06/22 09:22:55;;;;;;;15.32;9.40;;;;;;;31.09;38.61;94561.19;5020422;28;20490;-74
2022/06/22 09:25:36;;;;;;;22.53;9.43;;;;;;;31.13;38.89;94549.31;5020050;28;20124;-75
2022/06/22 09:28:07;;;;;;;18.13;8.38;;;;;;;31.15;38.19;94538.22;5027251;28;20042;-74
2022/06/22 09:30:44;;;;;;;21.50;8.80;;;;;;;31.28;37.35;94542.22;5009678;28;20589;-74
2022/06/22 09:33:20;;;;;;;22.02;8.70;;;;;;;31.50;38.27;94532.41;5021729;28;20498;-74
2022/06/22 09:36:00;;;;;;;21.60;8.90;;;;;;;31.52;36.13;94530.88;5028226;28;20489;-74
2022/06/22 09:38:51;;;;;;;15.73;8.10;;;;;;;31.59;36.32;94525.59;5021654;28;20053;-74
2022/06/22 09:41:22;;;;;;;15.88;8.07;;;;;;;31.74;36.48;94525.72;5020792;28;20069;-74
2022/06/22 09:44:09;;;;;;;27.02;9.63;;;;;;;31.70;36.66;94530.25;5021681;28;20041;-75
2022/06/22 09:46:56;;;;;;;20.60;8.13;;;;;;;31.54;36.54;94536.66;5020485;28;20042;-74
2022/06/22 09:49:40;;;;;;;23.42;7.32;;;;;;;31.48;36.25;94532.78;5003475;28;20032;-75
2022/06/22 09:52:11;;;;;;;18.52;6.50;;;;;;;31.58;35.67;94539.41;5020351;28;20694;-74
2022/06/22 09:57:45;;;;;;;23.27;6.75;;;;;;;31.52;35.14;94535.50;5021786;28;20064;-74
2022/06/22 10:00:21;;;;;;;17.67;7.65;;;;;;;31.57;36.07;94551.28;5019353;28;20040;-74
2022/06/22 10:03:05;;;;;;;20.83;7.00;;;;;;;31.61;37.44;94550.16;4986785;28;20092;-74
2022/06/22 10:06:02;;;;;;;19.38;6.85;;;;;;;31.39;37.29;94551.13;5020304;28;20036;-75
2022/06/22 10:08:36;;;;;;;24.92;7.50;;;;;;;31.15;38.62;94559.69;5019787;28;20045;-74
2022/06/22 10:11:40;;;;;;;23.70;7.60;;;;;;;30.91;38.81;94556.38;5020244;28;20037;-74
2022/06/22 10:14:42;;;;;;;19.88;7.45;;;;;;;30.82;39.32;94553.22;4995583;28;20096;-75
2022/06/22 10:17:19;;;;;;;23.63;7.10;;;;;;;30.57;38.92;94562.84;5004432;28;20445;-74
2022/06/22 10:20:23;;;;;;;20.15;7.53;;;;;;;30.43;39.38;94571.53;5010262;28;20069;-74
2022/06/22 10:23:00;;;;;;;24.55;7.32;;;;;;;30.45;38.93;94555.81;5027321;28;20056;-75
2022/06/22 10:25:48;;;;;;;12.75;7.50;;;;;;;30.50;39.75;94576.19;5027336;28;20029;-74
2022/06/22 10:28:26;;;;;;;17.02;7.43;;;;;;;30.48;40.09;94574.66;5004454;28;20029;-74
2022/06/22 10:31:10;;;;;;;16.48;7.75;;;;;;;30.54;39.22;94574.31;5025992;28;20025;-74
2022/06/22 10:33:56;;;;;;;20.30;8.00;;;;;;;30.40;38.72;94564.94;5020521;28;20037;-74
2022/06/22 10:36:34;;;;;;;17.92;6.75;;;;;;;30.18;39.79;94563.91;5020892;28;20362;-74
2022/06/22 10:39:20;;;;;;;24.65;7.45;;;;;;;30.03;39.77;94566.72;5020403;28;20580;-74
2022/06/22 10:45:28;;;;;;;11.68;7.15;;;;;;;29.95;40.54;94562.41;5019271;28;20115;-74
2022/06/22 10:48:31;;;;;;;14.77;7.43;;;;;;;30.09;41.17;94568.75;4993423;28;20065;-75
2022/06/22 10:51:12;;;;;;;20.13;7.72;;;;;;;30.17;40.56;94556.22;5019994;28;20511;-74
2022/06/22 10:54:02;;;;;;;18.65;7.40;;;;;;;30.12;40.82;94559.22;5002401;28;20037;-75
2022/06/22 10:56:51;;;;;;;15.57;7.43;;;;;;;30.16;40.92;94560.81;5019592;28;20037;-74
2022/06/22 10:59:31;;;;;;;20.70;7.68;;;;;;;30.04;41.15;94552.97;5000247;28;20068;-74
2022/06/22 11:01:59;;;;;;;19.15;7.47;;;;;;;29.79;41.83;94557.94;5019859;28;20068;-75
2022/06/22 11:04:37;;;;;;;14.32;8.10;;;;;;;29.76;42.17;94541.78;5020891;28;20037;-76
2022/06/22 11:07:32;;;;;;;16.00;7.80;;;;;;;29.76;42.59;94560.56;5026096;28;20038;-74
2022/06/22 11:10:43;;;;;;;25.10;8.48;;;;;;;29.98;43.06;94553.63;5002297;28;20567;-74
2022/06/22 11:13:17;;;;;;;15.45;8.05;;;;;;;30.17;42.83;94545.50;5018554;28;20041;-73
2022/06/22 11:15:58;;;;;;;17.30;8.60;;;;;;;30.40;41.72;94546.16;5019153;28;20065;-75
2022/06/22 11:18:42;;;;;;;13.13;7.32;;;;;;;30.58;39.67;94565.16;5026426;28;20223;-75
2022/06/22 11:21:35;;;;;;;17.35;7.60;;;;;;;30.44;39.39;94565.00;5018712;28;20037;-73
2022/06/22 11:24:38;;;;;;;17.45;7.68;;;;;;;30.40;40.36;94575.69;5017760;28;20041;-73
2022/06/22 11:30:51;;;;;;;25.85;8.65;;;;;;;30.39;39.53;94566.09;5026025;28;20180;-74
2022/06/22 11:33:26;;;;;;;16.20;8.52;;;;;;;30.40;39.53;94551.53;5021728;28;20038;-73
2022/06/22 11:36:23;;;;;;;17.35;8.25;;;;;;;30.28;39.69;94562.50;5020806;28;20533;-75
2022/06/22 11:39:07;;;;;;;16.95;7.72;;;;;;;30.24;39.69;94564.34;5000940;28;20041;-74
2022/06/22 11:42:00;;;;;;;20.95;8.13;;;;;;;30.35;39.31;94567.97;5026356;28;20496;-76
2022/06/22 11:44:35;;;;;;;28.63;7.65;;;;;;;30.41;39.64;94561.13;5025896;28;20129;-75
2022/06/22 11:47:19;;;;;;;13.55;8.38;;;;;;;30.47;40.02;94556.22;5001262;28;20037;-74
2022/06/22 11:50:15;;;;;;;21.38;8.85;;;;;;;30.63;39.60;94550.72;4986449;28;20403;-74
2022/06/22 11:52:46;;;;;;;18.52;7.80;;;;;;;30.70;39.31;94546.19;4959614;28;20057;-74
2022/06/22 11:55:21;;;;;;;15.40;8.25;;;;;;;30.64;39.19;94549.56;5020019;28;20038;-74
2022/06/22 11:58:09;;;;;;;23.05;8.38;;;;;;;30.62;39.74;94549.94;5019243;28;20030;-75
2022/06/22 12:00:52;;;;;;;16.92;7.88;;;;;;;30.66;40.08;94553.41;5018049;28;20030;-75
2022/06/22 12:03:42;;;;;;;20.65;8.23;;;;;;;30.67;40.50;94551.50;5002155;28;20065;-74
2022/06/22 12:06:26;;;;;;;18.48;8.40;;;;;;;30.75;40.83;94548.56;5019835;28;20052;-74
2022/06/22 12:09:22;;;;;;;22.20;9.40;;;;;;;30.80;40.14;94555.50;5020003;28;20064;-74
2022/06/22 12:12:25;;;;;;;19.10;8.80;;;;;;;30.74;41.07;94554.25;5004269;28;20042;-74
2022/06/22 12:15:07;;;;;;;20.65;8.50;;;;;;;30.62;40.83;94554.53;5018341;28;20474;-74
2022/06/22 12:18:11;;;;;;;28.30;10.00;;;;;;;30.56;41.76;94550.56;5009703;28;20061;-75
2022/06/22 12:21:14;;;;;;;23.88;10.00;;;;;;;30.48;40.81;94544.34;5018970;28;20087;-75
2022/06/22 12:24:07;;;;;;;24.00;9.30;;;;;;;30.19;40.79;94543.22;5019475;28;20037;-74
2022/06/22 12:26:54;;;;;;;23.80;9.10;;;;;;;29.85;41.04;94556.50;5001706;28;20500;-75
2022/06/22 12:29:41;;;;;;;15.50;9.98;;;;;;;29.81;42.07;94558.38;5017181;28;20045;-74
2022/06/22 12:32:33;;;;;;;16.05;9.65;;;;;;;29.70;42.63;94549.38;5020049;28;20038;-74
2022/06/22 12:35:23;;;;;;;12.32;8.90;;;;;;;29.54;43.37;94557.53;5004609;28;20108;-78
2022/06/22 12:38:34;;;;;;;23.15;8.77;;;;;;;29.45;43.50;94564.22;5038473;28;20038;-79
2022/06/22 12:41:21;;;;;;;16.63;8.73;;;;;;;29.39;43.82;94563.00;5030894;28;20046;-79
2022/06/22 12:44:15;;;;;;;23.42;9.32;;;;;;;29.36;43.74;94564.50;5040707;28;20048;-80
2022/06/22 12:46:57;;;;;;;15.57;8.63;;;;;;;29.36;42.45;94561.03;5016023;28;20033;-80
2022/06/22 12:49:35;;;;;;;16.02;8.57;;;;;;;29.28;41.85;94546.72;5015183;28;20056;-79
2022/06/22 12:52:12;;;;;;;12.60;8.43;;;;;;;29.28;43.37;94550.19;5029154;28;20038;-78